createdAt,value
2023-03-08T14:01:20.400Z,47.50
2023-03-08T14:11:30.666Z,19.60
2023-03-08T14:21:37.198Z,22.20
2023-03-08T14:31:57.368Z,22.60
2023-03-08T14:42:23.455Z,24.90
2023-03-08T14:52:31.370Z,32.80
2023-03-08T15:02:37.930Z,27.40
2023-03-08T15:12:44.288Z,22.20
2023-03-08T15:22:56.608Z,19.00
2023-03-08T15:33:03.772Z,20.40
2023-03-08T15:43:10.564Z,19.20
2023-03-08T15:53:33.069Z,20.30
2023-03-08T16:03:41.896Z,20.70
2023-03-08T16:13:52.470Z,23.20
2023-03-08T16:23:58.765Z,21.60
2023-03-08T16:34:06.091Z,23.10
2023-03-08T16:44:27.008Z,20.30
2023-03-08T16:54:33.432Z,22.80
2023-03-08T17:04:39.823Z,23.20
2023-03-08T18:38:19.986Z,23.70
2023-03-08T18:48:26.150Z,30.40
2023-03-08T18:58:32.869Z,28.30
2023-03-08T19:08:39.398Z,30.00
2023-03-08T19:18:45.769Z,32.80
2023-03-08T19:28:52.087Z,32.00
2023-03-08T19:38:58.986Z,36.90
2023-03-08T19:49:07.179Z,34.80
2023-03-08T19:59:13.703Z,41.20
2023-03-08T20:09:24.931Z,38.50
2023-03-08T20:19:33.066Z,48.55
2023-03-08T20:29:39.537Z,40.00
2023-03-08T20:39:46.149Z,43.20
2023-03-08T20:49:52.443Z,46.10
2023-03-08T20:59:58.826Z,42.60
2023-03-08T21:10:05.394Z,42.20
2023-03-08T21:20:12.558Z,40.80
2023-03-08T21:30:19.137Z,42.20
2023-03-08T21:40:25.449Z,41.70
2023-03-08T21:50:31.752Z,37.50
2023-03-08T22:00:38.075Z,36.60
2023-03-08T22:10:44.420Z,37.60
2023-03-08T22:20:50.744Z,42.60
2023-03-08T22:30:57.050Z,37.30
2023-03-08T22:41:03.707Z,37.40
2023-03-08T22:51:11.658Z,32.50
2023-03-08T23:01:21.083Z,29.10
2023-03-08T23:11:28.284Z,27.50
2023-03-08T23:21:36.911Z,30.70
2023-03-08T23:31:46.197Z,31.40
2023-03-08T23:41:52.482Z,31.10
2023-03-08T23:51:58.808Z,27.10
